Amavisti — V2CR5 — position and weather

sailwx.info

Track history (hours):
 
Tides and Currents Weather Stations Pressure Air Temp Water Temp Dewpoint Dewpoint Depression Visibility Wind Speed Wind Dir Waves Ship Positions

Amavisti

Last reported at 2016-Jan-24 03:28 UTC. Time now 2016-Feb-09 13:49 UTC.
Position N 29°35' W 093°48'.
Warning: this ship's position is 16 days out of date.

Length 116 m; draft 7 m.

Type: Cargo ship. MMSI: 305086000.

Date/timePositionNaut miles runAvg speedWind from/ knotsBaromVisibWave heightAir tempDewpointWater temp
2016-Jan-24 03:28N 29°35' W 093°48'910.0
2016-Jan-24 02:33N 29°43' W 093°52'15 6.6
2016-Jan-24 00:21N 29°58' W 093°51'6 6.9
2016-Jan-23 23:28N 30°01' W 093°58'  
2016-Jan-21 09:22N 30°05' W 094°05'0 0.0
2016-Jan-21 04:13N 30°05' W 094°05'0 0.0
2016-Jan-21 02:28N 30°05' W 094°05'0 0.0
2016-Jan-20 07:19N 30°05' W 094°05'0 0.0
2016-Jan-20 05:28N 30°05' W 094°05'0 0.0
2016-Jan-20 04:31N 30°05' W 094°05'0 0.0
2016-Jan-20 03:28N 30°05' W 094°05'0 0.0
2016-Jan-20 02:31N 30°05' W 094°05'0 0.0
2016-Jan-19 15:28N 30°05' W 094°05'0 0.0
2016-Jan-19 13:31N 30°05' W 094°05'0 0.0
2016-Jan-19 12:31N 30°05' W 094°05'0 0.0
2016-Jan-19 11:31N 30°05' W 094°05'0 0.0
2016-Jan-19 10:31N 30°05' W 094°05'0 0.0
2016-Jan-19 09:28N 30°05' W 094°05'0 0.0
2016-Jan-19 08:22N 30°05' W 094°05'0 0.0
2016-Jan-19 07:31N 30°05' W 094°05'0 0.0
2016-Jan-19 05:31N 30°05' W 094°05'0 0.0
2016-Jan-19 04:31N 30°05' W 094°05'0 0.0
2016-Jan-19 03:33N 30°05' W 094°05'0 0.0
2016-Jan-19 02:25N 30°05' W 094°05'3 2.8
2016-Jan-19 01:21N 30°03' W 094°02'0 0.0
2016-Jan-18 16:28N 30°03' W 094°02'0 0.0
2016-Jan-18 15:31N 30°03' W 094°02'0 0.0
2016-Jan-18 14:31N 30°03' W 094°02'0 0.0
2016-Jan-18 13:31N 30°03' W 094°02'0 0.0
2016-Jan-18 12:28N 30°03' W 094°02'0 0.0
2016-Jan-18 11:31N 30°03' W 094°02'0 0.0
2016-Jan-18 10:28N 30°03' W 094°02'0 0.0
2016-Jan-18 09:31N 30°03' W 094°02'0 0.0
2016-Jan-18 08:31N 30°03' W 094°02'0 0.0
2016-Jan-18 07:31N 30°03' W 094°02'0 0.0
2016-Jan-18 06:25N 30°03' W 094°02'0 0.0
2016-Jan-18 05:04N 30°03' W 094°02'0 0.0
2016-Jan-18 03:31N 30°03' W 094°02'0 0.0
2016-Jan-18 02:31N 30°03' W 094°02'0 0.0
2016-Jan-17 14:16N 30°03' W 094°02'0 0.0
2016-Jan-17 13:22N 30°03' W 094°02'0 0.0
2016-Jan-17 12:28N 30°03' W 094°02'0 0.0
2016-Jan-17 00:25N 30°03' W 094°02'0 0.0
2016-Jan-16 23:31N 30°03' W 094°02'0 0.0
2016-Jan-16 18:04N 30°03' W 094°02'0 0.0
2016-Jan-16 15:22N 30°03' W 094°02'0 0.0
2016-Jan-16 13:28N 30°03' W 094°02'0 0.0
2016-Jan-16 12:31N 30°03' W 094°02'0 0.0
2016-Jan-16 11:25N 30°03' W 094°02'0 0.0
2016-Jan-16 10:31N 30°03' W 094°02'0 0.0
2016-Jan-16 09:28N 30°03' W 094°02'0 0.0
2016-Jan-16 08:31N 30°03' W 094°02'0 0.0
2016-Jan-16 07:31N 30°03' W 094°02'0 0.0
2016-Jan-16 06:25N 30°03' W 094°02'0 0.0
2016-Jan-16 05:28N 30°03' W 094°02'0 0.0
2016-Jan-16 04:13N 30°03' W 094°02'0 0.0
2016-Jan-15 16:13N 30°03' W 094°02'0 0.0
2016-Jan-15 15:31N 30°03' W 094°02'0 0.0
2016-Jan-15 14:31N 30°03' W 094°02'0 0.0
2016-Jan-15 12:10N 30°03' W 094°02'0 0.0
2016-Jan-15 11:28N 30°03' W 094°02'0 0.0
2016-Jan-15 02:28N 30°03' W 094°02'0 0.0
2016-Jan-14 22:19N 30°03' W 094°02'10 5.3
2016-Jan-14 20:21N 29°58' W 093°51'7 8.8
2016-Jan-14 19:32N 29°52' W 093°56'10 7.8
2016-Jan-14 18:14N 29°43' W 093°51'1910.3
2016-Jan-14 16:24N 29°27' W 093°40'3 1.0
2016-Jan-14 13:31N 29°25' W 093°37'0 0.0
2016-Jan-14 12:30N 29°25' W 093°37'0 0.0
2016-Jan-14 11:27N 29°25' W 093°37'0 0.0
2016-Jan-14 10:18N 29°25' W 093°37'0 0.0
2016-Jan-14 09:33N 29°25' W 093°37'0 0.0
2016-Jan-14 08:33N 29°25' W 093°37'0 0.0
2016-Jan-14 07:30N 29°25' W 093°37'0 0.0
2016-Jan-14 06:23N 29°25' W 093°37'  
Track history (hours):
 
Tides and Currents Weather Stations Pressure Air Temp Water Temp Dewpoint Dewpoint Depression Visibility Wind Speed Wind Dir Waves Ship Positions

Amavisti

Last reported at 2016-Jan-24 03:28 UTC. Time now 2016-Feb-09 13:49 UTC.
Position N 29°35' W 093°48'.
Warning: this ship's position is 16 days out of date.

Length 116 m; draft 7 m.

Type: Cargo ship. MMSI: 305086000.

Date/timePositionNaut miles runAvg speedWind from/ knotsBaromVisibWave heightAir tempDewpointWater temp
2016-Jan-24 03:28N 29°35' W 093°48'910.0
2016-Jan-24 02:33N 29°43' W 093°52'15 6.6
2016-Jan-24 00:21N 29°58' W 093°51'6 6.9
2016-Jan-23 23:28N 30°01' W 093°58'  
2016-Jan-21 09:22N 30°05' W 094°05'0 0.0
2016-Jan-21 04:13N 30°05' W 094°05'0 0.0
2016-Jan-21 02:28N 30°05' W 094°05'0 0.0
2016-Jan-20 07:19N 30°05' W 094°05'0 0.0
2016-Jan-20 05:28N 30°05' W 094°05'0 0.0
2016-Jan-20 04:31N 30°05' W 094°05'0 0.0
2016-Jan-20 03:28N 30°05' W 094°05'0 0.0
2016-Jan-20 02:31N 30°05' W 094°05'0 0.0
2016-Jan-19 15:28N 30°05' W 094°05'0 0.0
2016-Jan-19 13:31N 30°05' W 094°05'0 0.0
2016-Jan-19 12:31N 30°05' W 094°05'0 0.0
2016-Jan-19 11:31N 30°05' W 094°05'0 0.0
2016-Jan-19 10:31N 30°05' W 094°05'0 0.0
2016-Jan-19 09:28N 30°05' W 094°05'0 0.0
2016-Jan-19 08:22N 30°05' W 094°05'0 0.0
2016-Jan-19 07:31N 30°05' W 094°05'0 0.0
2016-Jan-19 05:31N 30°05' W 094°05'0 0.0
2016-Jan-19 04:31N 30°05' W 094°05'0 0.0
2016-Jan-19 03:33N 30°05' W 094°05'0 0.0
2016-Jan-19 02:25N 30°05' W 094°05'3 2.8
2016-Jan-19 01:21N 30°03' W 094°02'0 0.0
2016-Jan-18 16:28N 30°03' W 094°02'0 0.0
2016-Jan-18 15:31N 30°03' W 094°02'0 0.0
2016-Jan-18 14:31N 30°03' W 094°02'0 0.0
2016-Jan-18 13:31N 30°03' W 094°02'0 0.0
2016-Jan-18 12:28N 30°03' W 094°02'0 0.0
2016-Jan-18 11:31N 30°03' W 094°02'0 0.0
2016-Jan-18 10:28N 30°03' W 094°02'0 0.0
2016-Jan-18 09:31N 30°03' W 094°02'0 0.0
2016-Jan-18 08:31N 30°03' W 094°02'0 0.0
2016-Jan-18 07:31N 30°03' W 094°02'0 0.0
2016-Jan-18 06:25N 30°03' W 094°02'0 0.0
2016-Jan-18 05:04N 30°03' W 094°02'0 0.0
2016-Jan-18 03:31N 30°03' W 094°02'0 0.0
2016-Jan-18 02:31N 30°03' W 094°02'0 0.0
2016-Jan-17 14:16N 30°03' W 094°02'0 0.0
2016-Jan-17 13:22N 30°03' W 094°02'0 0.0
2016-Jan-17 12:28N 30°03' W 094°02'0 0.0
2016-Jan-17 00:25N 30°03' W 094°02'0 0.0
2016-Jan-16 23:31N 30°03' W 094°02'0 0.0
2016-Jan-16 18:04N 30°03' W 094°02'0 0.0
2016-Jan-16 15:22N 30°03' W 094°02'0 0.0
2016-Jan-16 13:28N 30°03' W 094°02'0 0.0
2016-Jan-16 12:31N 30°03' W 094°02'0 0.0
2016-Jan-16 11:25N 30°03' W 094°02'0 0.0
2016-Jan-16 10:31N 30°03' W 094°02'0 0.0
2016-Jan-16 09:28N 30°03' W 094°02'0 0.0
2016-Jan-16 08:31N 30°03' W 094°02'0 0.0
2016-Jan-16 07:31N 30°03' W 094°02'0 0.0
2016-Jan-16 06:25N 30°03' W 094°02'0 0.0
2016-Jan-16 05:28N 30°03' W 094°02'0 0.0
2016-Jan-16 04:13N 30°03' W 094°02'0 0.0
2016-Jan-15 16:13N 30°03' W 094°02'0 0.0
2016-Jan-15 15:31N 30°03' W 094°02'0 0.0
2016-Jan-15 14:31N 30°03' W 094°02'0 0.0
2016-Jan-15 12:10N 30°03' W 094°02'0 0.0
2016-Jan-15 11:28N 30°03' W 094°02'0 0.0
2016-Jan-15 02:28N 30°03' W 094°02'0 0.0
2016-Jan-14 22:19N 30°03' W 094°02'10 5.3
2016-Jan-14 20:21N 29°58' W 093°51'7 8.8
2016-Jan-14 19:32N 29°52' W 093°56'10 7.8
2016-Jan-14 18:14N 29°43' W 093°51'1910.3
2016-Jan-14 16:24N 29°27' W 093°40'3 1.0
2016-Jan-14 13:31N 29°25' W 093°37'0 0.0
2016-Jan-14 12:30N 29°25' W 093°37'0 0.0
2016-Jan-14 11:27N 29°25' W 093°37'0 0.0
2016-Jan-14 10:18N 29°25' W 093°37'0 0.0
2016-Jan-14 09:33N 29°25' W 093°37'0 0.0
2016-Jan-14 08:33N 29°25' W 093°37'0 0.0
2016-Jan-14 07:30N 29°25' W 093°37'0 0.0
2016-Jan-14 06:23N 29°25' W 093°37'  

Dump ship's entire track history